createdAt,value
2023-02-11T00:02:16.332Z,2.71
2023-02-11T00:04:44.881Z,2.74
2023-02-11T00:07:13.350Z,2.76
2023-02-11T00:09:41.744Z,2.80
2023-02-11T00:12:13.471Z,2.84
2023-02-11T00:14:53.768Z,2.90
2023-02-11T00:17:22.843Z,2.95
2023-02-11T00:19:52.379Z,2.97
2023-02-11T00:22:21.356Z,2.99
2023-02-11T00:24:51.265Z,3.04
2023-02-11T00:27:20.053Z,3.08
2023-02-11T00:29:48.743Z,3.08
2023-02-11T00:32:17.729Z,3.12
2023-02-11T00:34:46.589Z,3.11
2023-02-11T00:37:15.196Z,3.17
2023-02-11T00:39:44.185Z,3.20
2023-02-11T00:42:15.851Z,3.21
2023-02-11T00:44:46.985Z,3.24
2023-02-11T00:47:18.841Z,3.27
2023-02-11T00:49:47.535Z,3.33
2023-02-11T00:52:16.217Z,3.39
2023-02-11T00:54:44.900Z,3.45
2023-02-11T00:57:13.393Z,3.52
2023-02-11T00:59:42.186Z,3.56
2023-02-11T01:02:11.171Z,3.61
2023-02-11T01:04:40.069Z,3.62
2023-02-11T01:07:09.853Z,3.63
2023-02-11T01:09:39.636Z,3.60
2023-02-11T01:12:08.580Z,3.55
2023-02-11T01:14:37.591Z,3.46
2023-02-11T01:17:07.045Z,3.44
2023-02-11T01:19:37.823Z,3.43
2023-02-11T01:22:08.557Z,3.46
2023-02-11T01:24:37.551Z,3.49
2023-02-11T01:27:07.265Z,3.49
2023-02-11T01:29:36.357Z,3.47
2023-02-11T01:32:05.592Z,3.46
2023-02-11T01:34:34.127Z,3.52
2023-02-11T01:37:02.709Z,3.52
2023-02-11T01:39:34.204Z,3.53
2023-02-11T01:42:03.058Z,3.51
2023-02-11T01:44:35.834Z,3.42
2023-02-11T01:47:06.593Z,3.40
2023-02-11T01:49:39.666Z,3.39
2023-02-11T01:52:19.903Z,3.37
2023-02-11T01:55:11.431Z,3.36
2023-02-11T01:57:43.511Z,3.37
2023-02-11T02:00:26.046Z,3.38
2023-02-11T02:03:00.846Z,3.37
2023-02-11T02:05:33.837Z,3.35
2023-02-11T02:08:10.399Z,3.37
2023-02-11T02:10:43.672Z,3.39
2023-02-11T02:13:12.781Z,3.39
2023-02-11T02:15:49.427Z,3.40
2023-02-11T02:18:42.957Z,3.42
2023-02-11T02:21:54.411Z,3.45
2023-02-11T02:24:28.628Z,3.48
2023-02-11T02:27:18.107Z,3.51
2023-02-11T02:29:58.770Z,3.52
2023-02-11T02:32:36.524Z,3.50
2023-02-11T02:35:34.851Z,3.52
2023-02-11T02:38:16.331Z,3.55
2023-02-11T02:41:03.763Z,3.56
2023-02-11T02:43:33.680Z,3.61
2023-02-11T02:46:21.336Z,3.64
2023-02-11T02:48:52.813Z,3.67
2023-02-11T02:51:39.573Z,3.69
2023-02-11T02:54:14.501Z,3.69
2023-02-11T02:57:12.174Z,3.69
2023-02-11T03:00:11.574Z,3.69
2023-02-11T03:02:59.725Z,3.67
2023-02-11T03:05:48.591Z,3.63
2023-02-11T03:08:47.161Z,3.58
2023-02-11T03:11:18.650Z,3.54
2023-02-11T03:13:49.343Z,3.51
2023-02-11T03:16:25.795Z,3.50
2023-02-11T03:19:06.277Z,3.45
2023-02-11T03:21:38.693Z,3.43
2023-02-11T03:24:11.072Z,3.41
2023-02-11T03:26:46.972Z,3.40
2023-02-11T03:29:15.471Z,3.41
2023-02-11T03:31:53.138Z,3.44
2023-02-11T03:34:24.384Z,3.47
2023-02-11T03:37:02.814Z,3.48
2023-02-11T03:39:37.235Z,3.52
2023-02-11T03:42:10.048Z,3.56
2023-02-11T03:44:45.371Z,3.61
2023-02-11T03:47:16.094Z,3.62
2023-02-11T03:49:47.964Z,3.63
2023-02-11T03:52:18.799Z,3.65
2023-02-11T03:54:51.677Z,3.67
2023-02-11T03:57:19.952Z,3.69
2023-02-11T04:00:01.569Z,3.72
2023-02-11T04:02:41.494Z,3.77
2023-02-11T04:05:12.640Z,3.78
2023-02-11T04:07:41.217Z,3.79
2023-02-11T04:10:11.746Z,3.81
2023-02-11T04:12:40.541Z,3.82
2023-02-11T04:15:09.692Z,3.84
2023-02-11T04:17:38.727Z,3.87
2023-02-11T04:20:08.419Z,3.89
2023-02-11T04:22:37.634Z,3.93
2023-02-11T04:25:06.938Z,3.95
2023-02-11T04:27:35.723Z,4.06
2023-02-11T04:30:06.057Z,4.00
2023-02-11T04:32:34.525Z,4.00
2023-02-11T04:35:03.833Z,3.99
2023-02-11T04:37:32.198Z,3.96
2023-02-11T04:40:00.492Z,3.92
2023-02-11T04:42:28.873Z,3.88
2023-02-11T04:44:57.339Z,3.84
2023-02-11T04:47:25.696Z,3.84
2023-02-11T04:49:54.006Z,3.84
2023-02-11T04:52:22.393Z,3.82
2023-02-11T04:54:51.168Z,3.83
2023-02-11T04:57:19.447Z,3.83
2023-02-11T04:59:48.357Z,3.83
2023-02-11T05:02:16.560Z,3.83
2023-02-11T05:04:45.210Z,3.85
2023-02-11T05:07:14.400Z,3.83
2023-02-11T05:09:43.184Z,3.82
2023-02-11T05:12:11.982Z,3.81
2023-02-11T05:14:40.965Z,3.80
2023-02-11T05:17:09.447Z,3.81
2023-02-11T05:19:37.831Z,3.82
2023-02-11T05:22:06.724Z,3.83
2023-02-11T05:24:35.398Z,3.85
2023-02-11T05:27:04.009Z,3.87
2023-02-11T05:29:32.268Z,3.90
2023-02-11T05:32:00.695Z,3.92
2023-02-11T05:34:29.023Z,3.96
2023-02-11T05:36:57.458Z,3.99
2023-02-11T05:39:25.783Z,4.02
2023-02-11T05:41:54.162Z,4.05
2023-02-11T05:44:22.427Z,4.08
2023-02-11T05:46:50.809Z,4.10
2023-02-11T05:49:19.531Z,4.14
2023-02-11T05:51:47.996Z,4.17
2023-02-11T05:54:17.294Z,4.20
2023-02-11T05:56:45.658Z,4.22
2023-02-11T05:59:15.461Z,4.25
2023-02-11T06:01:43.845Z,4.27
2023-02-11T06:04:12.358Z,4.27
2023-02-11T06:06:40.818Z,4.27
2023-02-11T06:09:11.919Z,4.30
2023-02-11T06:11:40.238Z,4.31
2023-02-11T06:14:09.118Z,4.33
2023-02-11T06:16:38.014Z,4.33
2023-02-11T06:19:06.387Z,4.33
2023-02-11T06:21:43.330Z,4.31
2023-02-11T06:24:12.897Z,4.29
2023-02-11T06:26:41.154Z,4.29
2023-02-11T06:29:10.256Z,4.31
2023-02-11T06:31:39.860Z,4.32
2023-02-11T06:34:10.587Z,4.33
2023-02-11T06:36:41.138Z,4.34
2023-02-11T06:39:10.587Z,4.35
2023-02-11T06:41:39.354Z,4.38
2023-02-11T06:44:08.135Z,4.41
2023-02-11T06:46:37.151Z,4.45
2023-02-11T06:49:06.092Z,4.48
2023-02-11T06:51:34.770Z,4.50
2023-02-11T06:54:05.904Z,4.55
2023-02-11T06:56:35.122Z,4.60
2023-02-11T06:59:03.797Z,4.66
2023-02-11T07:01:32.565Z,4.70
2023-02-11T07:04:01.485Z,4.78
2023-02-11T07:06:30.370Z,4.86
2023-02-11T07:08:58.678Z,4.89
2023-02-11T07:11:29.395Z,4.93
2023-02-11T07:14:08.784Z,4.92
2023-02-11T07:16:38.969Z,4.98
2023-02-11T07:19:08.126Z,5.04
2023-02-11T07:21:36.812Z,5.10
2023-02-11T07:24:11.028Z,5.12
2023-02-11T07:26:41.667Z,5.16
2023-02-11T07:29:10.664Z,5.20
2023-02-11T07:31:39.579Z,5.27
2023-02-11T07:34:09.219Z,5.34
2023-02-11T07:36:38.580Z,5.39
2023-02-11T07:39:07.349Z,5.42
2023-02-11T07:41:37.903Z,5.49
2023-02-11T07:44:07.682Z,5.64
2023-02-11T07:46:36.227Z,6.35
2023-02-11T07:49:05.976Z,6.56
2023-02-11T07:51:34.256Z,6.67
2023-02-11T07:54:03.871Z,6.76
2023-02-11T07:56:33.071Z,6.83
2023-02-11T07:59:03.556Z,6.92
2023-02-11T08:01:33.326Z,6.98
2023-02-11T08:04:03.430Z,7.03
2023-02-11T08:06:34.929Z,7.07
2023-02-11T08:09:09.761Z,7.07
2023-02-11T08:11:40.178Z,7.07
2023-02-11T08:14:10.070Z,7.08
2023-02-11T08:16:40.623Z,7.04
2023-02-11T08:19:14.679Z,7.00
2023-02-11T08:21:43.863Z,6.97
2023-02-11T08:24:13.461Z,6.96
2023-02-11T08:26:42.954Z,6.98
2023-02-11T08:29:15.339Z,6.98
2023-02-11T08:31:47.335Z,6.99
2023-02-11T08:34:19.571Z,6.99
2023-02-11T08:36:49.077Z,6.98
2023-02-11T08:39:21.197Z,6.99
2023-02-11T08:41:52.567Z,6.99
2023-02-11T08:44:22.608Z,7.01
2023-02-11T08:46:53.153Z,7.02
2023-02-11T08:49:22.557Z,7.03
2023-02-11T08:51:51.471Z,7.04
2023-02-11T08:54:20.140Z,7.03
2023-02-11T08:56:53.406Z,7.09
2023-02-11T08:59:21.883Z,7.11
2023-02-11T09:01:50.901Z,7.14
2023-02-11T09:04:19.675Z,7.19
2023-02-11T09:06:48.268Z,7.28
2023-02-11T09:09:17.678Z,7.39
2023-02-11T09:11:46.720Z,7.50
2023-02-11T09:14:29.950Z,7.56
2023-02-11T09:17:50.101Z,7.62
2023-02-11T09:20:30.380Z,7.64
2023-02-11T09:22:59.984Z,7.69
2023-02-11T09:25:29.360Z,7.78
2023-02-11T09:27:58.216Z,7.86
2023-02-11T09:30:26.782Z,7.95
2023-02-11T09:32:55.764Z,8.01
2023-02-11T09:35:24.735Z,8.07
2023-02-11T09:37:54.153Z,8.12
2023-02-11T09:40:23.539Z,8.15
2023-02-11T09:42:53.146Z,8.21
2023-02-11T09:45:27.375Z,8.26
2023-02-11T09:48:00.667Z,8.33
2023-02-11T09:50:40.095Z,8.24
2023-02-11T09:53:33.157Z,7.59
2023-02-11T09:56:11.306Z,7.54
2023-02-11T09:58:42.651Z,7.51
2023-02-11T10:01:22.253Z,7.51
2023-02-11T10:04:01.337Z,7.52
2023-02-11T10:06:39.330Z,7.49
2023-02-11T10:09:32.994Z,7.46
2023-02-11T10:12:10.955Z,7.46
2023-02-11T10:15:20.980Z,7.46
2023-02-11T10:18:16.606Z,7.45
2023-02-11T10:21:07.588Z,8.13
2023-02-11T10:23:41.343Z,8.32
2023-02-11T10:26:17.463Z,8.34
2023-02-11T10:28:53.523Z,8.35
2023-02-11T10:31:49.130Z,8.38
2023-02-11T10:34:18.549Z,8.42
2023-02-11T10:36:47.239Z,8.45
2023-02-11T10:39:20.220Z,8.46
2023-02-11T10:41:57.938Z,8.46
2023-02-11T10:44:36.658Z,8.48
2023-02-11T10:47:13.123Z,8.48
2023-02-11T10:49:44.275Z,8.48
2023-02-11T10:52:12.697Z,8.50
2023-02-11T10:54:41.193Z,8.48
2023-02-11T10:57:20.087Z,8.45
2023-02-11T10:59:49.541Z,8.43
2023-02-11T11:02:20.826Z,8.40
2023-02-11T11:04:49.731Z,8.39
2023-02-11T11:07:22.419Z,8.37
2023-02-11T11:10:24.819Z,8.37
2023-02-11T11:12:53.260Z,8.37
2023-02-11T11:15:30.776Z,8.33
2023-02-11T11:18:22.598Z,8.27
2023-02-11T11:21:04.285Z,8.26
2023-02-11T11:23:36.974Z,8.26
2023-02-11T11:26:10.582Z,8.24
2023-02-11T11:28:49.912Z,8.28
2023-02-11T11:31:28.847Z,8.32
2023-02-11T11:33:59.904Z,8.39
2023-02-11T11:36:38.514Z,8.45
2023-02-11T11:39:30.124Z,8.51
2023-02-11T11:42:01.032Z,8.59
2023-02-11T11:44:36.309Z,8.66
2023-02-11T11:47:14.122Z,8.73
2023-02-11T11:49:43.316Z,8.81
2023-02-11T11:52:48.965Z,8.89
2023-02-11T11:55:22.515Z,8.94
2023-02-11T11:57:51.978Z,8.95
2023-02-11T12:00:32.548Z,8.94
2023-02-11T12:03:24.454Z,8.92
2023-02-11T12:06:21.641Z,8.92
2023-02-11T12:09:15.212Z,8.87
2023-02-11T12:12:15.369Z,8.84
2023-02-11T12:14:55.079Z,8.82
2023-02-11T12:17:33.472Z,8.82
2023-02-11T12:20:34.325Z,8.83
2023-02-11T12:23:56.442Z,8.83
2023-02-11T12:26:36.560Z,8.80
2023-02-11T12:29:36.371Z,8.81
2023-02-11T12:32:15.657Z,8.76
2023-02-11T12:35:02.729Z,8.06
2023-02-11T12:37:55.071Z,7.93
2023-02-11T12:40:42.807Z,7.86
2023-02-11T12:43:45.300Z,7.81
2023-02-11T12:46:35.253Z,7.82
2023-02-11T12:49:26.617Z,7.82
2023-02-11T12:52:12.594Z,7.77
2023-02-11T12:55:02.898Z,7.74
2023-02-11T12:57:33.834Z,7.73
2023-02-11T13:00:17.474Z,7.73
2023-02-11T13:03:11.762Z,8.14
2023-02-11T13:05:54.696Z,8.55
2023-02-11T13:08:28.508Z,8.65
2023-02-11T13:11:04.909Z,8.69
2023-02-11T13:13:46.457Z,8.74
2023-02-11T13:16:57.308Z,8.76
2023-02-11T13:19:35.887Z,8.73
2023-02-11T13:22:10.719Z,8.76
2023-02-11T13:24:53.243Z,8.73
2023-02-11T13:27:59.221Z,8.78
2023-02-11T13:30:40.084Z,8.82
2023-02-11T13:33:24.696Z,8.82
2023-02-11T13:35:58.749Z,8.80
2023-02-11T13:38:42.380Z,8.79
2023-02-11T13:41:31.448Z,8.81
2023-02-11T13:44:11.314Z,8.81
2023-02-11T13:46:57.692Z,8.76
2023-02-11T13:49:43.976Z,8.76
2023-02-11T13:52:31.505Z,8.73
2023-02-11T13:55:10.753Z,8.75
2023-02-11T13:57:41.927Z,8.75
2023-02-11T14:00:31.975Z,8.75
2023-02-11T14:03:31.548Z,8.75
2023-02-11T14:06:27.883Z,8.70
2023-02-11T14:09:17.476Z,8.66
2023-02-11T14:11:55.520Z,8.62
2023-02-11T14:14:32.218Z,8.59
2023-02-11T14:17:04.826Z,8.58
2023-02-11T14:19:34.815Z,8.58
2023-02-11T14:22:16.724Z,8.57
2023-02-11T14:25:03.319Z,8.57
2023-02-11T14:27:41.139Z,8.55
2023-02-11T14:30:09.997Z,8.54
2023-02-11T14:33:07.476Z,8.54
2023-02-11T14:35:45.690Z,8.45
2023-02-11T14:38:30.244Z,8.46
2023-02-11T14:41:11.644Z,8.44
2023-02-11T14:43:50.704Z,8.42
2023-02-11T14:46:22.368Z,8.43
2023-02-11T14:48:54.083Z,8.26
2023-02-11T14:51:32.007Z,8.31
2023-02-11T14:54:15.626Z,8.40
2023-02-11T14:56:47.283Z,8.39
2023-02-11T14:59:22.976Z,8.38
2023-02-11T15:01:56.677Z,8.37
2023-02-11T15:04:32.001Z,8.34
2023-02-11T15:07:07.556Z,8.31
2023-02-11T15:09:51.332Z,8.25
2023-02-11T15:12:25.462Z,8.21
2023-02-11T15:15:00.776Z,8.20
2023-02-11T15:17:32.820Z,8.15
2023-02-11T15:20:03.391Z,8.13
2023-02-11T15:22:37.164Z,8.13
2023-02-11T15:25:17.511Z,8.11
2023-02-11T15:27:50.909Z,8.10
2023-02-11T15:30:23.596Z,8.08
2023-02-11T15:33:03.975Z,8.07
2023-02-11T15:35:36.960Z,8.03
2023-02-11T15:38:06.802Z,8.02
2023-02-11T15:40:38.122Z,7.97
2023-02-11T15:43:10.001Z,7.95
2023-02-11T15:45:43.083Z,7.91
2023-02-11T15:48:20.635Z,7.90
2023-02-11T15:50:54.530Z,7.89
2023-02-11T15:53:32.192Z,7.86
2023-02-11T15:56:04.500Z,7.84
2023-02-11T15:58:43.081Z,7.83
2023-02-11T16:01:13.096Z,7.81
2023-02-11T16:03:43.740Z,7.76
2023-02-11T16:06:27.077Z,7.74
2023-02-11T16:09:03.130Z,7.69
2023-02-11T16:11:35.481Z,7.65
2023-02-11T16:14:39.567Z,7.61
2023-02-11T16:17:23.336Z,7.61
2023-02-11T16:19:54.674Z,7.57
2023-02-11T16:22:29.376Z,7.57
2023-02-11T16:25:00.949Z,7.57
2023-02-11T16:27:39.111Z,7.59
2023-02-11T16:30:28.196Z,7.58
2023-02-11T16:32:57.547Z,7.59
2023-02-11T16:35:27.117Z,7.63
2023-02-11T16:37:56.605Z,7.63
2023-02-11T16:40:25.927Z,7.61
2023-02-11T16:42:54.789Z,7.64
2023-02-11T16:45:23.401Z,7.67
2023-02-11T16:47:53.007Z,7.64
2023-02-11T16:50:27.312Z,7.64
2023-02-11T16:52:59.888Z,7.61
2023-02-11T16:55:30.336Z,7.63
2023-02-11T16:58:00.060Z,7.63
2023-02-11T17:00:29.784Z,7.61
2023-02-11T17:02:59.476Z,7.61
2023-02-11T17:05:28.253Z,7.61
2023-02-11T17:07:56.722Z,7.61
2023-02-11T17:10:25.940Z,7.62
2023-02-11T17:12:55.061Z,7.63
2023-02-11T17:15:24.328Z,7.64
2023-02-11T17:17:53.637Z,7.63
2023-02-11T17:20:24.078Z,7.64
2023-02-11T17:22:53.032Z,7.66
2023-02-11T17:25:23.585Z,7.70
2023-02-11T17:27:52.937Z,7.73
2023-02-11T17:30:23.145Z,7.75
2023-02-11T17:32:52.028Z,7.76
2023-02-11T17:35:20.898Z,7.75
2023-02-11T17:37:50.231Z,7.74
2023-02-11T17:40:19.643Z,7.78
2023-02-11T17:42:48.426Z,7.78
2023-02-11T17:45:17.426Z,7.80
2023-02-11T17:47:49.494Z,7.81
2023-02-11T17:50:18.769Z,7.84
2023-02-11T17:52:47.879Z,7.85
2023-02-11T17:55:17.212Z,7.85
2023-02-11T17:57:49.461Z,7.86
2023-02-11T18:00:19.437Z,7.84
2023-02-11T18:02:48.688Z,7.81
2023-02-11T18:05:18.086Z,7.80
2023-02-11T18:07:48.808Z,7.79
2023-02-11T18:10:17.925Z,7.77
2023-02-11T18:12:46.733Z,7.76
2023-02-11T18:15:16.214Z,7.75
2023-02-11T18:17:44.821Z,7.73
2023-02-11T18:20:14.431Z,7.75
2023-02-11T18:22:47.567Z,7.73
2023-02-11T18:25:20.726Z,7.73
2023-02-11T18:27:50.008Z,7.78
2023-02-11T18:30:22.591Z,7.78
2023-02-11T18:32:56.192Z,7.79
2023-02-11T18:35:26.319Z,7.81
2023-02-11T18:37:56.197Z,7.82
2023-02-11T18:40:26.799Z,7.82
2023-02-11T18:42:58.444Z,7.82
2023-02-11T18:45:32.690Z,7.79
2023-02-11T18:48:07.274Z,7.79
2023-02-11T18:50:37.272Z,7.80
2023-02-11T18:53:08.232Z,7.79
2023-02-11T18:55:40.294Z,7.77
2023-02-11T18:58:09.617Z,7.78
2023-02-11T19:00:44.335Z,7.77
2023-02-11T19:03:13.232Z,7.75
2023-02-11T19:05:48.473Z,7.74
2023-02-11T19:08:17.872Z,7.62
2023-02-11T19:10:49.857Z,7.71
2023-02-11T19:13:21.103Z,7.72
2023-02-11T19:15:58.960Z,7.73
2023-02-11T19:18:39.154Z,7.74
2023-02-11T19:21:10.614Z,7.72
2023-02-11T19:23:40.334Z,7.67
2023-02-11T19:26:10.753Z,7.66
2023-02-11T19:28:39.758Z,7.66
2023-02-11T19:31:09.636Z,7.66
2023-02-11T19:33:38.860Z,7.66
2023-02-11T19:36:08.461Z,7.64
2023-02-11T19:38:38.480Z,7.65
2023-02-11T19:41:08.635Z,7.67
2023-02-11T19:43:43.663Z,7.66
2023-02-11T19:46:12.612Z,7.66
2023-02-11T19:48:42.537Z,7.65
2023-02-11T19:51:13.410Z,7.67
2023-02-11T19:53:43.133Z,7.70
2023-02-11T19:56:13.547Z,7.73
2023-02-11T19:58:43.159Z,7.76
2023-02-11T20:01:15.690Z,7.77
2023-02-11T20:03:45.551Z,7.80
2023-02-11T20:06:23.654Z,7.82
2023-02-11T20:09:03.827Z,7.82
2023-02-11T20:11:35.984Z,7.85
2023-02-11T20:14:07.039Z,7.89
2023-02-11T20:16:47.682Z,7.90
2023-02-11T20:19:21.753Z,7.92
2023-02-11T20:21:58.739Z,7.90
2023-02-11T20:24:28.739Z,7.90
2023-02-11T20:26:59.759Z,7.91
2023-02-11T20:29:32.217Z,7.90
2023-02-11T20:32:00.931Z,7.88
2023-02-11T20:34:30.037Z,7.84
2023-02-11T20:36:59.761Z,7.71
2023-02-11T20:39:28.547Z,7.80
2023-02-11T20:41:57.850Z,7.81
2023-02-11T20:44:27.372Z,7.81
2023-02-11T20:46:56.540Z,7.84
2023-02-11T20:49:28.906Z,7.82
2023-02-11T20:52:00.602Z,7.82
2023-02-11T20:54:30.973Z,7.82
2023-02-11T20:57:01.853Z,7.85
2023-02-11T20:59:31.433Z,7.88
2023-02-11T21:02:01.935Z,7.92
2023-02-11T21:04:33.240Z,7.93
2023-02-11T21:07:02.640Z,7.96
2023-02-11T21:09:33.554Z,7.95
2023-02-11T21:12:03.310Z,7.97
2023-02-11T21:14:32.387Z,7.98
2023-02-11T21:17:01.200Z,7.99
2023-02-11T21:19:30.405Z,8.01
2023-02-11T21:22:00.815Z,8.02
2023-02-11T21:24:31.364Z,8.04
2023-02-11T21:27:00.143Z,8.04
2023-02-11T21:29:29.048Z,8.04
2023-02-11T21:31:57.774Z,8.04
2023-02-11T21:34:27.229Z,8.05
2023-02-11T21:36:56.344Z,8.04
2023-02-11T21:39:25.444Z,8.05
2023-02-11T21:41:56.378Z,8.08
2023-02-11T21:44:25.278Z,8.07
2023-02-11T21:46:54.878Z,8.07
2023-02-11T21:49:24.080Z,8.06
2023-02-11T21:51:53.811Z,8.07
2023-02-11T21:54:27.142Z,8.08
2023-02-11T21:56:57.119Z,8.06
2023-02-11T21:59:26.206Z,8.04
2023-02-11T22:01:55.679Z,8.04
2023-02-11T22:04:28.479Z,8.02
2023-02-11T22:06:59.497Z,7.99
2023-02-11T22:09:29.153Z,7.95
2023-02-11T22:11:57.849Z,7.99
2023-02-11T22:14:26.440Z,8.01
2023-02-11T22:16:56.100Z,8.03
2023-02-11T22:19:27.188Z,8.05
2023-02-11T22:21:56.300Z,8.03
2023-02-11T22:24:26.886Z,8.01
2023-02-11T22:26:56.107Z,8.01
2023-02-11T22:29:31.140Z,8.02
2023-02-11T22:32:00.269Z,8.02
2023-02-11T22:34:29.022Z,8.02
2023-02-11T22:36:59.206Z,8.05
2023-02-11T22:39:29.242Z,8.09
2023-02-11T22:41:58.053Z,8.10
2023-02-11T22:44:26.958Z,8.10
2023-02-11T22:46:56.331Z,8.13
2023-02-11T22:49:25.276Z,8.14
2023-02-11T22:51:54.741Z,8.15
2023-02-11T22:54:23.751Z,8.13
2023-02-11T22:56:54.121Z,8.13
2023-02-11T22:59:23.433Z,8.14
2023-02-11T23:01:52.846Z,8.14
2023-02-11T23:04:25.327Z,8.13
2023-02-11T23:06:53.692Z,8.13
2023-02-11T23:09:22.399Z,8.13
2023-02-11T23:11:54.416Z,8.13
2023-02-11T23:14:22.833Z,8.11
2023-02-11T23:16:51.652Z,8.08
2023-02-11T23:19:21.542Z,8.07
2023-02-11T23:21:51.962Z,8.04
2023-02-11T23:24:21.068Z,8.02
2023-02-11T23:26:50.201Z,8.00
2023-02-11T23:29:19.250Z,7.99
2023-02-11T23:31:47.839Z,7.95
2023-02-11T23:34:17.460Z,7.93
2023-02-11T23:36:46.242Z,7.97
2023-02-11T23:39:15.965Z,7.99
2023-02-11T23:41:45.444Z,7.99
2023-02-11T23:44:13.730Z,7.98
2023-02-11T23:46:42.320Z,8.04
2023-02-11T23:49:11.032Z,7.58
2023-02-11T23:51:39.266Z,7.10
2023-02-11T23:54:07.447Z,7.00
2023-02-11T23:56:37.078Z,6.97
2023-02-11T23:59:06.185Z,6.97
